sensor_id;sensor_type;location;lat;lon;timestamp;pressure;altitude;pressure_sealevel;temperature;humidity
78888;BME280;68276;49.326;8.690;2023-02-28T00:00:29;101174.69;;;-0.47;56.42
78888;BME280;68276;49.326;8.690;2023-02-28T00:02:56;101176.56;;;-0.49;56.70
78888;BME280;68276;49.326;8.690;2023-02-28T00:05:22;101165.91;;;-0.62;56.56
78888;BME280;68276;49.326;8.690;2023-02-28T00:07:50;101171.84;;;-0.58;56.86
78888;BME280;68276;49.326;8.690;2023-02-28T00:10:24;101176.78;;;-0.66;57.47
78888;BME280;68276;49.326;8.690;2023-02-28T00:12:50;101174.03;;;-0.65;57.33
78888;BME280;68276;49.326;8.690;2023-02-28T00:15:17;101167.44;;;-0.44;56.14
78888;BME280;68276;49.326;8.690;2023-02-28T00:17:43;101164.59;;;-0.41;56.14
78888;BME280;68276;49.326;8.690;2023-02-28T00:20:11;101174.69;;;-0.47;56.72
78888;BME280;68276;49.326;8.690;2023-02-28T00:22:45;101171.97;;;-0.60;57.08
78888;BME280;68276;49.326;8.690;2023-02-28T00:25:13;101174.69;;;-0.75;57.48
78888;BME280;68276;49.326;8.690;2023-02-28T00:27:41;101168.66;;;-0.77;57.75
78888;BME280;68276;49.326;8.690;2023-02-28T00:30:11;101175.13;;;-0.83;58.05
78888;BME280;68276;49.326;8.690;2023-02-28T00:32:36;101167.88;;;-0.79;58.79
78888;BME280;68276;49.326;8.690;2023-02-28T00:35:03;101153.22;;;-0.83;57.91
78888;BME280;68276;49.326;8.690;2023-02-28T00:37:28;101167.72;;;-0.90;58.81
78888;BME280;68276;49.326;8.690;2023-02-28T00:39:54;101164.56;;;-0.97;58.96
78888;BME280;68276;49.326;8.690;2023-02-28T00:42:19;101173.34;;;-0.96;58.95
78888;BME280;68276;49.326;8.690;2023-02-28T00:44:44;101172.00;;;-1.03;59.27
78888;BME280;68276;49.326;8.690;2023-02-28T00:47:10;101174.53;;;-1.02;58.86
78888;BME280;68276;49.326;8.690;2023-02-28T00:49:35;101174.94;;;-1.08;59.75
78888;BME280;68276;49.326;8.690;2023-02-28T00:52:01;101177.81;;;-1.13;60.12
78888;BME280;68276;49.326;8.690;2023-02-28T00:54:26;101177.66;;;-1.09;59.20
78888;BME280;68276;49.326;8.690;2023-02-28T00:56:52;101171.09;;;-1.02;59.47
78888;BME280;68276;49.326;8.690;2023-02-28T00:59:17;101178.81;;;-0.99;59.38
78888;BME280;68276;49.326;8.690;2023-02-28T01:01:44;101180.81;;;-0.89;59.12
78888;BME280;68276;49.326;8.690;2023-02-28T01:04:10;101164.97;;;-0.89;59.32
78888;BME280;68276;49.326;8.690;2023-02-28T01:06:36;101165.84;;;-0.88;59.03
78888;BME280;68276;49.326;8.690;2023-02-28T01:09:03;101173.91;;;-0.91;59.76
78888;BME280;68276;49.326;8.690;2023-02-28T01:11:29;101168.47;;;-0.88;59.46
78888;BME280;68276;49.326;8.690;2023-02-28T01:13:55;101167.72;;;-0.90;59.72
78888;BME280;68276;49.326;8.690;2023-02-28T01:16:20;101171.84;;;-0.72;59.59
78888;BME280;68276;49.326;8.690;2023-02-28T01:18:45;101170.25;;;-0.75;59.71
78888;BME280;68276;49.326;8.690;2023-02-28T01:21:14;101163.69;;;-0.68;59.76
78888;BME280;68276;49.326;8.690;2023-02-28T01:23:40;101160.38;;;-0.71;59.50
78888;BME280;68276;49.326;8.690;2023-02-28T01:26:27;101158.19;;;-0.65;59.26
78888;BME280;68276;49.326;8.690;2023-02-28T01:28:53;101169.63;;;-0.64;59.67
78888;BME280;68276;49.326;8.690;2023-02-28T01:31:19;101163.19;;;-0.74;59.67
78888;BME280;68276;49.326;8.690;2023-02-28T01:33:46;101163.47;;;-0.79;59.91
78888;BME280;68276;49.326;8.690;2023-02-28T01:36:14;101160.84;;;-0.79;60.19
78888;BME280;68276;49.326;8.690;2023-02-28T01:38:40;101157.91;;;-0.74;59.83
78888;BME280;68276;49.326;8.690;2023-02-28T01:41:06;101166.88;;;-0.77;60.61
78888;BME280;68276;49.326;8.690;2023-02-28T01:46:40;101150.94;;;-0.89;60.84
78888;BME280;68276;49.326;8.690;2023-02-28T01:49:13;101165.25;;;-0.79;60.56
78888;BME280;68276;49.326;8.690;2023-02-28T01:51:45;101159.97;;;-0.79;60.87
78888;BME280;68276;49.326;8.690;2023-02-28T01:54:27;101156.97;;;-0.87;60.60
78888;BME280;68276;49.326;8.690;2023-02-28T01:56:57;101153.66;;;-0.91;60.92
78888;BME280;68276;49.326;8.690;2023-02-28T01:59:29;101150.94;;;-0.89;60.63
78888;BME280;68276;49.326;8.690;2023-02-28T02:01:56;101152.34;;;-0.98;61.17
78888;BME280;68276;49.326;8.690;2023-02-28T02:04:26;101153.22;;;-0.83;60.65
78888;BME280;68276;49.326;8.690;2023-02-28T02:06:52;101151.31;;;-0.81;60.40
78888;BME280;68276;49.326;8.690;2023-02-28T02:09:18;101145.47;;;-0.86;61.00
78888;BME280;68276;49.326;8.690;2023-02-28T02:11:44;101147.81;;;-0.96;61.15
78888;BME280;68276;49.326;8.690;2023-02-28T02:22:32;101140.56;;;-1.06;62.16
78888;BME280;68276;49.326;8.690;2023-02-28T02:33:59;101139.03;;;-1.10;62.32
78888;BME280;68276;49.326;8.690;2023-02-28T02:36:28;101139.13;;;-1.12;62.79
78888;BME280;68276;49.326;8.690;2023-02-28T02:39:20;101138.84;;;-1.22;62.79
78888;BME280;68276;49.326;8.690;2023-02-28T02:41:53;101144.28;;;-1.25;63.15
78888;BME280;68276;49.326;8.690;2023-02-28T02:44:34;101140.91;;;-1.13;63.08
78888;BME280;68276;49.326;8.690;2023-02-28T02:47:15;101138.38;;;-1.14;62.89
78888;BME280;68276;49.326;8.690;2023-02-28T02:49:46;101142.81;;;-1.14;62.89
78888;BME280;68276;49.326;8.690;2023-02-28T02:52:15;101138.13;;;-1.09;62.77
78888;BME280;68276;49.326;8.690;2023-02-28T02:54:45;101141.66;;;-1.10;62.83
78888;BME280;68276;49.326;8.690;2023-02-28T02:57:15;101147.59;;;-1.07;62.20
78888;BME280;68276;49.326;8.690;2023-02-28T02:59:44;101144.06;;;-1.06;62.10
78888;BME280;68276;49.326;8.690;2023-02-28T03:02:12;101133.59;;;-1.07;61.94
78888;BME280;68276;49.326;8.690;2023-02-28T03:04:52;101141.88;;;-1.13;63.00
78888;BME280;68276;49.326;8.690;2023-02-28T03:07:19;101141.19;;;-1.17;62.89
78888;BME280;68276;49.326;8.690;2023-02-28T03:09:56;101131.41;;;-1.15;62.93
78888;BME280;68276;49.326;8.690;2023-02-28T03:12:40;101133.00;;;-1.13;62.46
78888;BME280;68276;49.326;8.690;2023-02-28T03:15:27;101140.72;;;-1.24;62.86
78888;BME280;68276;49.326;8.690;2023-02-28T03:18:10;101145.03;;;-1.23;63.22
78888;BME280;68276;49.326;8.690;2023-02-28T03:23:19;101132.53;;;-1.19;62.87
78888;BME280;68276;49.326;8.690;2023-02-28T03:26:00;101130.44;;;-1.28;62.96
78888;BME280;68276;49.326;8.690;2023-02-28T03:28:56;101130.56;;;-1.16;62.67
78888;BME280;68276;49.326;8.690;2023-02-28T03:31:39;101128.13;;;-1.19;62.73
78888;BME280;68276;49.326;8.690;2023-02-28T03:34:08;101134.25;;;-1.18;62.80
78888;BME280;68276;49.326;8.690;2023-02-28T03:36:38;101137.22;;;-1.24;62.66
78888;BME280;68276;49.326;8.690;2023-02-28T03:39:14;101135.53;;;-1.25;63.49
78888;BME280;68276;49.326;8.690;2023-02-28T03:41:52;101144.47;;;-1.28;63.40
78888;BME280;68276;49.326;8.690;2023-02-28T03:44:28;101133.34;;;-1.33;63.01
78888;BME280;68276;49.326;8.690;2023-02-28T03:47:23;101136.84;;;-1.32;64.04
78888;BME280;68276;49.326;8.690;2023-02-28T03:50:03;101142.88;;;-1.30;63.42
78888;BME280;68276;49.326;8.690;2023-02-28T03:52:34;101136.38;;;-1.39;63.44
78888;BME280;68276;49.326;8.690;2023-02-28T03:55:08;101139.25;;;-1.43;64.36
78888;BME280;68276;49.326;8.690;2023-02-28T03:57:53;101143.66;;;-1.44;64.49
78888;BME280;68276;49.326;8.690;2023-02-28T04:00:36;101135.38;;;-1.52;64.60
78888;BME280;68276;49.326;8.690;2023-02-28T04:03:03;101137.91;;;-1.50;64.67
78888;BME280;68276;49.326;8.690;2023-02-28T04:05:29;101133.16;;;-1.59;65.17
78888;BME280;68276;49.326;8.690;2023-02-28T04:08:04;101137.44;;;-1.57;64.35
78888;BME280;68276;49.326;8.690;2023-02-28T04:10:29;101138.09;;;-1.53;64.81
78888;BME280;68276;49.326;8.690;2023-02-28T04:12:55;101126.94;;;-1.43;64.36
78888;BME280;68276;49.326;8.690;2023-02-28T04:15:20;101134.03;;;-1.29;63.74
78888;BME280;68276;49.326;8.690;2023-02-28T04:17:47;101133.53;;;-1.36;64.19
78888;BME280;68276;49.326;8.690;2023-02-28T04:20:13;101128.53;;;-1.40;64.10
78888;BME280;68276;49.326;8.690;2023-02-28T04:22:38;101134.66;;;-1.40;64.48
78888;BME280;68276;49.326;8.690;2023-02-28T04:25:05;101133.53;;;-1.36;64.61
78888;BME280;68276;49.326;8.690;2023-02-28T04:27:30;101139.66;;;-1.35;64.09
78888;BME280;68276;49.326;8.690;2023-02-28T04:29:56;101137.28;;;-1.40;64.61
78888;BME280;68276;49.326;8.690;2023-02-28T04:32:21;101136.38;;;-1.39;64.80
78888;BME280;68276;49.326;8.690;2023-02-28T04:34:46;101129.81;;;-1.47;64.04
78888;BME280;68276;49.326;8.690;2023-02-28T04:37:12;101132.03;;;-1.40;64.37
78888;BME280;68276;49.326;8.690;2023-02-28T04:39:37;101132.16;;;-1.27;64.31
78888;BME280;68276;49.326;8.690;2023-02-28T04:42:03;101127.53;;;-1.24;63.69
78888;BME280;68276;49.326;8.690;2023-02-28T04:44:29;101138.44;;;-1.30;63.82
78888;BME280;68276;49.326;8.690;2023-02-28T04:46:54;101126.69;;;-1.24;63.47
78888;BME280;68276;49.326;8.690;2023-02-28T04:49:19;101128.88;;;-1.17;63.27
78888;BME280;68276;49.326;8.690;2023-02-28T04:51:45;101127.81;;;-1.14;63.28
78888;BME280;68276;49.326;8.690;2023-02-28T04:54:10;101129.63;;;-1.14;63.45
78888;BME280;68276;49.326;8.690;2023-02-28T04:56:36;101133.94;;;-1.13;63.64
78888;BME280;68276;49.326;8.690;2023-02-28T04:59:01;101133.59;;;-1.07;63.09
78888;BME280;68276;49.326;8.690;2023-02-28T05:01:32;101132.44;;;-1.03;63.61
78888;BME280;68276;49.326;8.690;2023-02-28T05:03:59;101136.81;;;-1.02;63.28
78888;BME280;68276;49.326;8.690;2023-02-28T05:06:27;101132.44;;;-1.03;63.43
78888;BME280;68276;49.326;8.690;2023-02-28T05:08:55;101142.75;;;-0.99;62.78
78888;BME280;68276;49.326;8.690;2023-02-28T05:11:27;101140.00;;;-0.97;62.77
78888;BME280;68276;49.326;8.690;2023-02-28T05:13:54;101144.13;;;-0.93;62.67
78888;BME280;68276;49.326;8.690;2023-02-28T05:16:20;101151.13;;;-0.92;62.87
78888;BME280;68276;49.326;8.690;2023-02-28T05:18:46;101143.69;;;-0.86;62.17
78888;BME280;68276;49.326;8.690;2023-02-28T05:21:30;101142.81;;;-0.86;62.26
78888;BME280;68276;49.326;8.690;2023-02-28T05:23:57;101146.97;;;-0.82;62.60
78888;BME280;68276;49.326;8.690;2023-02-28T05:26:24;101153.31;;;-0.85;62.24
78888;BME280;68276;49.326;8.690;2023-02-28T05:28:49;101146.22;;;-0.84;62.48
78888;BME280;68276;49.326;8.690;2023-02-28T05:31:15;101146.97;;;-0.82;62.20
78888;BME280;68276;49.326;8.690;2023-02-28T05:33:41;101155.94;;;-0.85;62.35
78888;BME280;68276;49.326;8.690;2023-02-28T05:36:06;101155.66;;;-0.80;62.22
78888;BME280;68276;49.326;8.690;2023-02-28T05:38:32;101156.41;;;-0.78;61.65
78888;BME280;68276;49.326;8.690;2023-02-28T05:40:58;101160.53;;;-0.74;61.31
78888;BME280;68276;49.326;8.690;2023-02-28T05:43:23;101163.94;;;-0.72;61.72
78888;BME280;68276;49.326;8.690;2023-02-28T05:45:49;101161.13;;;-0.69;61.25
78888;BME280;68276;49.326;8.690;2023-02-28T05:48:15;101159.63;;;-0.73;61.47
78888;BME280;68276;49.326;8.690;2023-02-28T05:50:40;101162.81;;;-0.68;61.31
78888;BME280;68276;49.326;8.690;2023-02-28T05:53:07;101157.53;;;-0.68;61.35
78888;BME280;68276;49.326;8.690;2023-02-28T05:55:33;101162.06;;;-0.70;61.34
78888;BME280;68276;49.326;8.690;2023-02-28T05:57:58;101166.56;;;-0.72;61.23
78888;BME280;68276;49.326;8.690;2023-02-28T06:00:23;101167.63;;;-0.75;61.44
78888;BME280;68276;49.326;8.690;2023-02-28T06:02:49;101162.81;;;-0.82;61.35
78888;BME280;68276;49.326;8.690;2023-02-28T06:05:16;101166.88;;;-0.77;61.30
78888;BME280;68276;49.326;8.690;2023-02-28T06:07:42;101168.66;;;-0.77;61.52
78888;BME280;68276;49.326;8.690;2023-02-28T06:10:09;101173.06;;;-0.78;61.23
78888;BME280;68276;49.326;8.690;2023-02-28T06:12:36;101173.94;;;-0.77;61.14
78888;BME280;68276;49.326;8.690;2023-02-28T06:15:02;101170.53;;;-0.79;61.38
78888;BME280;68276;49.326;8.690;2023-02-28T06:17:30;101168.66;;;-0.77;61.25
78888;BME280;68276;49.326;8.690;2023-02-28T06:19:55;101171.38;;;-0.79;61.50
78888;BME280;68276;49.326;8.690;2023-02-28T06:22:21;101179.75;;;-0.72;61.23
78888;BME280;68276;49.326;8.690;2023-02-28T06:24:46;101176.09;;;-0.70;61.51
78888;BME280;68276;49.326;8.690;2023-02-28T06:27:12;101179.59;;;-0.69;61.21
78888;BME280;68276;49.326;8.690;2023-02-28T06:29:38;101184.13;;;-0.71;61.57
78888;BME280;68276;49.326;8.690;2023-02-28T06:32:05;101182.41;;;-0.72;61.10
78888;BME280;68276;49.326;8.690;2023-02-28T06:34:31;101184.94;;;-0.71;61.17
78888;BME280;68276;49.326;8.690;2023-02-28T06:36:56;101180.53;;;-0.70;61.60
78888;BME280;68276;49.326;8.690;2023-02-28T06:39:22;101175.44;;;-0.73;61.02
78888;BME280;68276;49.326;8.690;2023-02-28T06:41:47;101189.66;;;-0.76;61.42
78888;BME280;68276;49.326;8.690;2023-02-28T06:44:15;101193.63;;;-0.69;61.49
78888;BME280;68276;49.326;8.690;2023-02-28T06:46:41;101186.47;;;-0.67;61.43
78888;BME280;68276;49.326;8.690;2023-02-28T06:49:08;101193.41;;;-0.66;61.54
78888;BME280;68276;49.326;8.690;2023-02-28T06:51:38;101181.09;;;-0.65;61.56
78888;BME280;68276;49.326;8.690;2023-02-28T06:54:05;101191.53;;;-0.64;60.82
78888;BME280;68276;49.326;8.690;2023-02-28T06:56:34;101189.88;;;-0.65;60.92
78888;BME280;68276;49.326;8.690;2023-02-28T06:59:00;101194.75;;;-0.59;60.96
78888;BME280;68276;49.326;8.690;2023-02-28T07:01:25;101194.59;;;-0.56;61.04
78888;BME280;68276;49.326;8.690;2023-02-28T07:03:53;101202.00;;;-0.48;61.01
78888;BME280;68276;49.326;8.690;2023-02-28T07:06:19;101200.31;;;-0.49;60.49
78888;BME280;68276;49.326;8.690;2023-02-28T07:08:48;101204.00;;;-0.38;60.67
78888;BME280;68276;49.326;8.690;2023-02-28T07:11:13;101210.59;;;-0.31;59.73
78888;BME280;68276;49.326;8.690;2023-02-28T07:13:38;101211.63;;;-0.19;59.47
78888;BME280;68276;49.326;8.690;2023-02-28T07:16:06;101217.28;;;-0.11;59.36
78888;BME280;68276;49.326;8.690;2023-02-28T07:18:32;101220.47;;;-0.06;59.13
78888;BME280;68276;49.326;8.690;2023-02-28T07:21:02;101219.31;;;0.12;58.91
78888;BME280;68276;49.326;8.690;2023-02-28T07:23:27;101226.84;;;0.18;58.51
78888;BME280;68276;49.326;8.690;2023-02-28T07:25:53;101224.00;;;0.21;58.02
78888;BME280;68276;49.326;8.690;2023-02-28T07:28:21;101220.59;;;0.19;57.91
78888;BME280;68276;49.326;8.690;2023-02-28T07:30:46;101215.03;;;0.24;58.06
78888;BME280;68276;49.326;8.690;2023-02-28T07:33:11;101210.44;;;0.13;58.24
78888;BME280;68276;49.326;8.690;2023-02-28T07:35:37;101224.84;;;0.22;58.47
78888;BME280;68276;49.326;8.690;2023-02-28T07:38:03;101224.66;;;0.25;58.14
78888;BME280;68276;49.326;8.690;2023-02-28T07:40:30;101220.88;;;0.29;58.34
78888;BME280;68276;49.326;8.690;2023-02-28T07:42:56;101224.50;;;0.40;57.53
78888;BME280;68276;49.326;8.690;2023-02-28T07:45:21;101217.97;;;0.46;57.32
78888;BME280;68276;49.326;8.690;2023-02-28T07:47:46;101225.59;;;0.50;57.49
78888;BME280;68276;49.326;8.690;2023-02-28T07:50:14;101221.09;;;0.38;57.36
78888;BME280;68276;49.326;8.690;2023-02-28T07:52:40;101233.94;;;0.44;57.49
78888;BME280;68276;49.326;8.690;2023-02-28T07:55:09;101233.25;;;0.55;56.96
78888;BME280;68276;49.326;8.690;2023-02-28T07:57:34;101228.31;;;0.63;56.93
78888;BME280;68276;49.326;8.690;2023-02-28T08:00:00;101231.59;;;0.66;56.82
78888;BME280;68276;49.326;8.690;2023-02-28T08:02:26;101223.44;;;0.69;56.49
78888;BME280;68276;49.326;8.690;2023-02-28T08:04:52;101239.13;;;0.72;56.48
78888;BME280;68276;49.326;8.690;2023-02-28T08:07:17;101230.78;;;0.78;56.81
78888;BME280;68276;49.326;8.690;2023-02-28T08:09:44;101235.25;;;0.90;56.42
78888;BME280;68276;49.326;8.690;2023-02-28T08:12:10;101229.78;;;0.93;56.17
78888;BME280;68276;49.326;8.690;2023-02-28T08:14:36;101220.88;;;0.94;55.92
78888;BME280;68276;49.326;8.690;2023-02-28T08:17:02;101224.06;;;0.99;56.08
78888;BME280;68276;49.326;8.690;2023-02-28T08:19:28;101228.53;;;1.11;55.37
78888;BME280;68276;49.326;8.690;2023-02-28T08:21:54;101238.72;;;1.17;54.88
78888;BME280;68276;49.326;8.690;2023-02-28T08:24:21;101225.88;;;1.11;55.26
78888;BME280;68276;49.326;8.690;2023-02-28T08:26:47;101236.16;;;1.29;54.79
78888;BME280;68276;49.326;8.690;2023-02-28T08:29:13;101221.75;;;1.07;55.10
78888;BME280;68276;49.326;8.690;2023-02-28T08:31:38;101230.69;;;1.32;54.72
78888;BME280;68276;49.326;8.690;2023-02-28T08:34:11;101224.56;;;1.44;54.16
78888;BME280;68276;49.326;8.690;2023-02-28T08:36:38;101225.59;;;1.29;54.29
78888;BME280;68276;49.326;8.690;2023-02-28T08:39:06;101227.16;;;1.18;54.74
78888;BME280;68276;49.326;8.690;2023-02-28T08:41:32;101229.22;;;1.40;54.11
78888;BME280;68276;49.326;8.690;2023-02-28T08:43:58;101233.88;;;1.37;53.98
78888;BME280;68276;49.326;8.690;2023-02-28T08:46:24;101222.44;;;1.49;53.56
78888;BME280;68276;49.326;8.690;2023-02-28T08:48:55;101215.19;;;1.51;53.49
78888;BME280;68276;49.326;8.690;2023-02-28T08:51:21;101216.63;;;1.44;53.06
78888;BME280;68276;49.326;8.690;2023-02-28T08:53:52;101221.47;;;1.50;53.17
78888;BME280;68276;49.326;8.690;2023-02-28T08:56:18;101223.66;;;1.81;53.05
78888;BME280;68276;49.326;8.690;2023-02-28T08:58:44;101217.50;;;1.93;52.76
78888;BME280;68276;49.326;8.690;2023-02-28T09:01:22;101216.25;;;1.86;52.35
78888;BME280;68276;49.326;8.690;2023-02-28T09:03:50;101227.75;;;2.10;51.98
78888;BME280;68276;49.326;8.690;2023-02-28T09:06:18;101225.94;;;2.10;51.63
78888;BME280;68276;49.326;8.690;2023-02-28T09:08:44;101214.59;;;2.08;51.84
78888;BME280;68276;49.326;8.690;2023-02-28T09:11:09;101221.63;;;2.09;51.81
78888;BME280;68276;49.326;8.690;2023-02-28T09:13:36;101220.66;;;2.34;50.98
78888;BME280;68276;49.326;8.690;2023-02-28T09:16:03;101225.69;;;2.26;50.57
78888;BME280;68276;49.326;8.690;2023-02-28T09:18:29;101223.38;;;2.21;50.73
78888;BME280;68276;49.326;8.690;2023-02-28T09:20:55;101226.03;;;2.21;51.00
78888;BME280;68276;49.326;8.690;2023-02-28T09:23:21;101221.63;;;2.33;50.79
78888;BME280;68276;49.326;8.690;2023-02-28T09:25:53;101220.75;;;2.45;50.51
78888;BME280;68276;49.326;8.690;2023-02-28T09:28:19;101223.13;;;2.37;50.67
78888;BME280;68276;49.326;8.690;2023-02-28T09:30:46;101217.06;;;2.59;49.84
78888;BME280;68276;49.326;8.690;2023-02-28T09:33:13;101225.38;;;2.54;49.83
78888;BME280;68276;49.326;8.690;2023-02-28T09:35:38;101221.88;;;2.54;49.96
78888;BME280;68276;49.326;8.690;2023-02-28T09:38:04;101218.16;;;2.56;49.77
78888;BME280;68276;49.326;8.690;2023-02-28T09:40:30;101214.53;;;2.57;49.34
78888;BME280;68276;49.326;8.690;2023-02-28T09:42:57;101217.25;;;2.68;49.65
78888;BME280;68276;49.326;8.690;2023-02-28T09:45:27;101218.25;;;2.55;49.43
78888;BME280;68276;49.326;8.690;2023-02-28T09:47:56;101226.56;;;2.50;49.12
78888;BME280;68276;49.326;8.690;2023-02-28T09:50:40;101227.00;;;2.68;49.11
78888;BME280;68276;49.326;8.690;2023-02-28T09:53:21;101212.34;;;2.75;48.85
78888;BME280;68276;49.326;8.690;2023-02-28T09:55:55;101215.88;;;2.86;48.55
78888;BME280;68276;49.326;8.690;2023-02-28T09:58:38;101221.97;;;3.10;48.41
78888;BME280;68276;49.326;8.690;2023-02-28T10:01:31;101226.84;;;3.16;47.59
78888;BME280;68276;49.326;8.690;2023-02-28T10:04:04;101224.25;;;3.04;48.17
78888;BME280;68276;49.326;8.690;2023-02-28T10:06:39;101219.19;;;3.01;48.66
78888;BME280;68276;49.326;8.690;2023-02-28T10:09:33;101221.53;;;3.27;47.23
78888;BME280;68276;49.326;8.690;2023-02-28T10:12:04;101215.00;;;3.20;47.25
78888;BME280;68276;49.326;8.690;2023-02-28T10:14:33;101218.69;;;3.41;46.88
78888;BME280;68276;49.326;8.690;2023-02-28T10:17:08;101222.03;;;3.21;47.29
78888;BME280;68276;49.326;8.690;2023-02-28T10:20:12;101214.13;;;3.55;47.35
78888;BME280;68276;49.326;8.690;2023-02-28T10:25:28;101225.84;;;3.85;45.32
78888;BME280;68276;49.326;8.690;2023-02-28T10:27:58;101228.25;;;3.88;45.64
78888;BME280;68276;49.326;8.690;2023-02-28T10:30:26;101231.03;;;3.87;45.30
78888;BME280;68276;49.326;8.690;2023-02-28T10:32:52;101224.50;;;3.80;45.90
78888;BME280;68276;49.326;8.690;2023-02-28T10:35:22;101226.94;;;3.94;45.14
78888;BME280;68276;49.326;8.690;2023-02-28T10:37:58;101213.88;;;4.02;45.24
78888;BME280;68276;49.326;8.690;2023-02-28T10:40:26;101221.84;;;4.24;44.69
78888;BME280;68276;49.326;8.690;2023-02-28T10:43:02;101221.19;;;4.31;44.10
78888;BME280;68276;49.326;8.690;2023-02-28T10:45:30;101221.25;;;4.20;44.48
78888;BME280;68276;49.326;8.690;2023-02-28T10:48:22;101213.63;;;4.16;44.85
78888;BME280;68276;49.326;8.690;2023-02-28T10:50:52;101216.28;;;4.16;44.46
78888;BME280;68276;49.326;8.690;2023-02-28T10:58:48;101222.81;;;4.65;42.92
78888;BME280;68276;49.326;8.690;2023-02-28T11:03:45;101209.47;;;4.45;43.52
78888;BME280;68276;49.326;8.690;2023-02-28T11:06:27;101214.69;;;4.35;43.41
78888;BME280;68276;49.326;8.690;2023-02-28T11:09:03;101212.34;;;4.42;43.03
78888;BME280;68276;49.326;8.690;2023-02-28T11:11:42;101209.91;;;4.82;43.21
78888;BME280;68276;49.326;8.690;2023-02-28T11:14:20;101222.00;;;4.54;42.95
78888;BME280;68276;49.326;8.690;2023-02-28T11:16:46;101207.78;;;4.33;43.41
78888;BME280;68276;49.326;8.690;2023-02-28T11:19:25;101204.16;;;4.34;43.38
78888;BME280;68276;49.326;8.690;2023-02-28T11:21:59;101200.44;;;4.68;43.24
78888;BME280;68276;49.326;8.690;2023-02-28T11:24:31;101197.72;;;4.79;43.04
78888;BME280;68276;49.326;8.690;2023-02-28T11:26:58;101197.63;;;4.69;43.07
78888;BME280;68276;49.326;8.690;2023-02-28T11:29:26;101199.50;;;4.58;43.07
78888;BME280;68276;49.326;8.690;2023-02-28T11:32:12;101197.03;;;4.66;42.69
78888;BME280;68276;49.326;8.690;2023-02-28T11:34:39;101203.03;;;4.47;42.90
78888;BME280;68276;49.326;8.690;2023-02-28T11:37:11;101198.19;;;4.52;42.76
78888;BME280;68276;49.326;8.690;2023-02-28T11:39:37;101203.59;;;4.62;43.03
78888;BME280;68276;49.326;8.690;2023-02-28T11:47:47;101201.28;;;4.26;43.58
78888;BME280;68276;49.326;8.690;2023-02-28T11:50:52;101190.00;;;4.44;43.35
78888;BME280;68276;49.326;8.690;2023-02-28T11:53:35;101198.31;;;4.40;42.48
78888;BME280;68276;49.326;8.690;2023-02-28T12:09:52;101186.69;;;4.84;42.17
78888;BME280;68276;49.326;8.690;2023-02-28T12:20:51;101200.16;;;4.71;42.27
78888;BME280;68276;49.326;8.690;2023-02-28T12:23:25;101197.72;;;4.79;41.93
78888;BME280;68276;49.326;8.690;2023-02-28T12:29:30;101184.50;;;5.09;41.07
78888;BME280;68276;49.326;8.690;2023-02-28T12:32:06;101177.56;;;5.38;40.96
78888;BME280;68276;49.326;8.690;2023-02-28T12:34:41;101181.72;;;5.61;40.60
78888;BME280;68276;49.326;8.690;2023-02-28T12:37:14;101175.34;;;6.04;39.27
78888;BME280;68276;49.326;8.690;2023-02-28T12:39:48;101168.56;;;6.00;39.69
78888;BME280;68276;49.326;8.690;2023-02-28T12:42:25;101178.19;;;6.31;39.17
78888;BME280;68276;49.326;8.690;2023-02-28T12:44:58;101171.47;;;6.36;38.16
78888;BME280;68276;49.326;8.690;2023-02-28T12:47:24;101171.44;;;6.08;38.97
78888;BME280;68276;49.326;8.690;2023-02-28T12:50:05;101164.06;;;5.91;39.36
78888;BME280;68276;49.326;8.690;2023-02-28T12:58:20;101162.97;;;6.03;38.72
78888;BME280;68276;49.326;8.690;2023-02-28T13:07:29;101164.56;;;7.29;37.51
78888;BME280;68276;49.326;8.690;2023-02-28T13:09:55;101152.66;;;7.60;37.43
78888;BME280;68276;49.326;8.690;2023-02-28T13:12:21;101159.00;;;7.50;37.49
78888;BME280;68276;49.326;8.690;2023-02-28T13:14:48;101152.38;;;6.98;36.67
78888;BME280;68276;49.326;8.690;2023-02-28T13:17:23;101160.31;;;7.82;36.39
78888;BME280;68276;49.326;8.690;2023-02-28T13:24:55;101164.19;;;6.48;38.03
78888;BME280;68276;49.326;8.690;2023-02-28T13:29:51;101160.41;;;8.45;34.15
78888;BME280;68276;49.326;8.690;2023-02-28T13:42:34;101158.53;;;7.73;34.25
78888;BME280;68276;49.326;8.690;2023-02-28T13:47:38;101159.69;;;7.06;35.61
78888;BME280;68276;49.326;8.690;2023-02-28T14:06:23;101161.81;;;9.27;32.47
78888;BME280;68276;49.326;8.690;2023-02-28T14:09:02;101153.34;;;10.41;30.82
78888;BME280;68276;49.326;8.690;2023-02-28T14:11:30;101154.03;;;9.67;31.77
78888;BME280;68276;49.326;8.690;2023-02-28T14:13:56;101152.97;;;9.35;32.44
78888;BME280;68276;49.326;8.690;2023-02-28T14:16:25;101154.41;;;9.80;31.12
78888;BME280;68276;49.326;8.690;2023-02-28T14:19:04;101158.06;;;11.43;29.30
78888;BME280;68276;49.326;8.690;2023-02-28T14:21:36;101159.44;;;10.83;29.62
78888;BME280;68276;49.326;8.690;2023-02-28T14:24:24;101157.56;;;10.59;29.63
78888;BME280;68276;49.326;8.690;2023-02-28T14:27:05;101153.63;;;9.96;30.77
78888;BME280;68276;49.326;8.690;2023-02-28T14:38:17;101151.16;;;11.48;28.79
78888;BME280;68276;49.326;8.690;2023-02-28T14:40:45;101157.19;;;10.04;31.42
78888;BME280;68276;49.326;8.690;2023-02-28T14:43:24;101160.63;;;9.81;31.65
78888;BME280;68276;49.326;8.690;2023-02-28T14:46:01;101170.53;;;7.60;35.25
78888;BME280;68276;49.326;8.690;2023-02-28T14:48:29;101174.31;;;6.92;36.89
78888;BME280;68276;49.326;8.690;2023-02-28T14:51:00;101165.25;;;6.17;38.81
78888;BME280;68276;49.326;8.690;2023-02-28T14:53:29;101167.50;;;6.12;38.83
78888;BME280;68276;49.326;8.690;2023-02-28T14:55:56;101165.03;;;6.39;38.73
78888;BME280;68276;49.326;8.690;2023-02-28T14:58:27;101162.47;;;7.14;37.92
78888;BME280;68276;49.326;8.690;2023-02-28T15:00:57;101162.94;;;6.90;37.18
78888;BME280;68276;49.326;8.690;2023-02-28T15:03:37;101164.09;;;7.43;37.16
78888;BME280;68276;49.326;8.690;2023-02-28T15:06:05;101157.06;;;8.60;34.54
78888;BME280;68276;49.326;8.690;2023-02-28T15:08:31;101158.56;;;8.28;35.08
78888;BME280;68276;49.326;8.690;2023-02-28T15:11:06;101163.31;;;7.70;36.69